Avon, New Jersey
Current Conditions -  °F | °C
As of 10:15 AM on Friday 31 Oct 2014 (Local Time) from KBLM Reporting Station
Overcast Overcast  
Wind Chill: 42°   Ceiling: 3700
Heat Index: 46°   Visibility: 10mi
Dew Point: 34°   Wind: 8mph
Humidity: 62%   Direction: 10°N
Pressure: 29.98"   Gusts: NA
Location:  40.1917°N, 74.0159°W
Report Text: KBLM 311415Z AUTO 01007KT 10SM OVC037 08/01 A2998 RMK AO1
Loading
Personal Weather Stations






























Interactive Weather Map
Tropical Storm Tracking
New forecast layout! Learn more

10-Day Weather Forecast

Advertisements
Track Severe Weather on mobile